sensor_id;sensor_type;location;lat;lon;timestamp;P1;durP1;ratioP1;P2;durP2;ratioP2
1460;SDS011;724;49.910;12.530;2023-11-18T00:00:53;14.00;;;13.30;;
1460;SDS011;724;49.910;12.530;2023-11-18T00:03:20;13.98;;;13.27;;
1460;SDS011;724;49.910;12.530;2023-11-18T00:05:47;13.82;;;13.13;;
1460;SDS011;724;49.910;12.530;2023-11-18T00:08:15;14.30;;;13.60;;
1460;SDS011;724;49.910;12.530;2023-11-18T00:10:42;14.70;;;13.95;;
1460;SDS011;724;49.910;12.530;2023-11-18T00:13:09;14.50;;;13.80;;
1460;SDS011;724;49.910;12.530;2023-11-18T00:15:35;14.38;;;13.68;;
1460;SDS011;724;49.910;12.530;2023-11-18T00:18:02;14.20;;;13.50;;
1460;SDS011;724;49.910;12.530;2023-11-18T00:20:29;13.90;;;13.20;;
1460;SDS011;724;49.910;12.530;2023-11-18T00:22:56;14.30;;;13.60;;
1460;SDS011;724;49.910;12.530;2023-11-18T00:25:25;14.48;;;13.77;;
1460;SDS011;724;49.910;12.530;2023-11-18T00:27:52;13.82;;;13.13;;
1460;SDS011;724;49.910;12.530;2023-11-18T00:30:19;14.20;;;13.50;;
1460;SDS011;724;49.910;12.530;2023-11-18T00:32:47;13.80;;;13.10;;
1460;SDS011;724;49.910;12.530;2023-11-18T00:35:14;14.10;;;13.40;;
1460;SDS011;724;49.910;12.530;2023-11-18T00:37:41;14.10;;;13.40;;
1460;SDS011;724;49.910;12.530;2023-11-18T00:40:09;13.68;;;12.98;;
1460;SDS011;724;49.910;12.530;2023-11-18T00:42:37;13.90;;;13.20;;
1460;SDS011;724;49.910;12.530;2023-11-18T00:45:05;13.70;;;13.00;;
1460;SDS011;724;49.910;12.530;2023-11-18T00:47:32;13.85;;;13.15;;
1460;SDS011;724;49.910;12.530;2023-11-18T00:49:59;13.90;;;13.20;;
1460;SDS011;724;49.910;12.530;2023-11-18T00:52:27;13.80;;;13.10;;
1460;SDS011;724;49.910;12.530;2023-11-18T00:54:53;13.20;;;12.50;;
1460;SDS011;724;49.910;12.530;2023-11-18T00:57:20;13.40;;;12.70;;
1460;SDS011;724;49.910;12.530;2023-11-18T00:59:48;13.80;;;13.10;;
1460;SDS011;724;49.910;12.530;2023-11-18T01:02:15;13.70;;;13.00;;
1460;SDS011;724;49.910;12.530;2023-11-18T01:04:43;14.10;;;13.40;;
1460;SDS011;724;49.910;12.530;2023-11-18T01:07:10;13.70;;;13.00;;
1460;SDS011;724;49.910;12.530;2023-11-18T01:09:37;14.05;;;13.35;;
1460;SDS011;724;49.910;12.530;2023-11-18T01:12:04;14.00;;;13.30;;
1460;SDS011;724;49.910;12.530;2023-11-18T01:14:34;14.13;;;13.43;;
1460;SDS011;724;49.910;12.530;2023-11-18T01:17:04;13.93;;;13.23;;
1460;SDS011;724;49.910;12.530;2023-11-18T01:19:31;14.25;;;13.55;;
1460;SDS011;724;49.910;12.530;2023-11-18T01:21:58;14.10;;;13.40;;
1460;SDS011;724;49.910;12.530;2023-11-18T01:24:25;14.13;;;13.43;;
1460;SDS011;724;49.910;12.530;2023-11-18T01:26:52;14.40;;;13.70;;
1460;SDS011;724;49.910;12.530;2023-11-18T01:29:19;14.00;;;13.30;;
1460;SDS011;724;49.910;12.530;2023-11-18T01:31:47;14.40;;;13.70;;
1460;SDS011;724;49.910;12.530;2023-11-18T01:34:15;14.10;;;13.40;;
1460;SDS011;724;49.910;12.530;2023-11-18T01:36:43;14.48;;;13.77;;
1460;SDS011;724;49.910;12.530;2023-11-18T01:39:10;13.88;;;13.18;;
1460;SDS011;724;49.910;12.530;2023-11-18T01:41:38;13.80;;;13.10;;
1460;SDS011;724;49.910;12.530;2023-11-18T01:44:05;13.93;;;13.23;;
1460;SDS011;724;49.910;12.530;2023-11-18T01:46:33;13.45;;;12.75;;
1460;SDS011;724;49.910;12.530;2023-11-18T01:49:00;13.90;;;13.20;;
1460;SDS011;724;49.910;12.530;2023-11-18T01:51:30;13.80;;;13.10;;
1460;SDS011;724;49.910;12.530;2023-11-18T01:53:57;13.80;;;13.10;;
1460;SDS011;724;49.910;12.530;2023-11-18T01:56:26;14.40;;;13.70;;
1460;SDS011;724;49.910;12.530;2023-11-18T01:58:54;14.75;;;13.98;;
1460;SDS011;724;49.910;12.530;2023-11-18T02:01:23;14.30;;;13.60;;
1460;SDS011;724;49.910;12.530;2023-11-18T02:03:51;14.02;;;13.32;;
1460;SDS011;724;49.910;12.530;2023-11-18T02:06:18;14.48;;;13.77;;
1460;SDS011;724;49.910;12.530;2023-11-18T02:08:47;14.13;;;13.43;;
1460;SDS011;724;49.910;12.530;2023-11-18T02:11:17;14.45;;;13.75;;
1460;SDS011;724;49.910;12.530;2023-11-18T02:13:51;14.32;;;13.63;;
1460;SDS011;724;49.910;12.530;2023-11-18T02:16:21;14.00;;;13.30;;
1460;SDS011;724;49.910;12.530;2023-11-18T02:18:49;14.30;;;13.60;;
1460;SDS011;724;49.910;12.530;2023-11-18T02:21:18;14.10;;;13.40;;
1460;SDS011;724;49.910;12.530;2023-11-18T02:23:49;14.30;;;13.60;;
1460;SDS011;724;49.910;12.530;2023-11-18T02:26:21;14.15;;;13.45;;
1460;SDS011;724;49.910;12.530;2023-11-18T02:28:48;14.38;;;13.68;;
1460;SDS011;724;49.910;12.530;2023-11-18T02:31:16;14.30;;;13.60;;
1460;SDS011;724;49.910;12.530;2023-11-18T02:33:51;13.90;;;13.20;;
1460;SDS011;724;49.910;12.530;2023-11-18T02:36:30;13.70;;;13.00;;
1460;SDS011;724;49.910;12.530;2023-11-18T02:39:03;14.00;;;13.30;;
1460;SDS011;724;49.910;12.530;2023-11-18T02:41:34;13.57;;;12.88;;
1460;SDS011;724;49.910;12.530;2023-11-18T02:44:02;13.90;;;13.20;;
1460;SDS011;724;49.910;12.530;2023-11-18T02:46:33;14.70;;;13.95;;
1460;SDS011;724;49.910;12.530;2023-11-18T02:49:00;14.50;;;13.80;;
1460;SDS011;724;49.910;12.530;2023-11-18T02:51:28;14.32;;;13.63;;
1460;SDS011;724;49.910;12.530;2023-11-18T02:53:56;14.35;;;13.65;;
1460;SDS011;724;49.910;12.530;2023-11-18T02:56:23;14.07;;;13.38;;
1460;SDS011;724;49.910;12.530;2023-11-18T02:58:53;14.55;;;13.85;;
1460;SDS011;724;49.910;12.530;2023-11-18T03:01:19;14.80;;;14.00;;
1460;SDS011;724;49.910;12.530;2023-11-18T03:03:50;14.40;;;13.70;;
1460;SDS011;724;49.910;12.530;2023-11-18T03:06:17;14.55;;;13.85;;
1460;SDS011;724;49.910;12.530;2023-11-18T03:08:44;14.40;;;13.70;;
1460;SDS011;724;49.910;12.530;2023-11-18T03:11:11;14.70;;;13.95;;
1460;SDS011;724;49.910;12.530;2023-11-18T03:13:38;14.90;;;14.10;;
1460;SDS011;724;49.910;12.530;2023-11-18T03:16:08;14.90;;;14.10;;
1460;SDS011;724;49.910;12.530;2023-11-18T03:18:38;14.40;;;13.70;;
1460;SDS011;724;49.910;12.530;2023-11-18T03:21:05;14.60;;;13.88;;
1460;SDS011;724;49.910;12.530;2023-11-18T03:23:37;14.75;;;13.98;;
1460;SDS011;724;49.910;12.530;2023-11-18T03:26:04;14.50;;;13.80;;
1460;SDS011;724;49.910;12.530;2023-11-18T03:28:31;14.30;;;13.60;;
1460;SDS011;724;49.910;12.530;2023-11-18T03:30:58;14.98;;;14.18;;
1460;SDS011;724;49.910;12.530;2023-11-18T03:33:27;14.85;;;14.05;;
1460;SDS011;724;49.910;12.530;2023-11-18T03:35:55;14.18;;;13.48;;
1460;SDS011;724;49.910;12.530;2023-11-18T03:38:22;14.40;;;13.70;;
1460;SDS011;724;49.910;12.530;2023-11-18T03:40:49;14.20;;;13.50;;
1460;SDS011;724;49.910;12.530;2023-11-18T03:43:17;14.30;;;13.60;;
1460;SDS011;724;49.910;12.530;2023-11-18T03:45:45;14.88;;;14.07;;
1460;SDS011;724;49.910;12.530;2023-11-18T03:48:11;14.15;;;13.45;;
1460;SDS011;724;49.910;12.530;2023-11-18T03:50:40;14.30;;;13.60;;
1460;SDS011;724;49.910;12.530;2023-11-18T03:53:09;14.20;;;13.50;;
1460;SDS011;724;49.910;12.530;2023-11-18T03:55:37;15.20;;;14.40;;
1460;SDS011;724;49.910;12.530;2023-11-18T03:58:04;14.27;;;13.57;;
1460;SDS011;724;49.910;12.530;2023-11-18T04:00:33;13.98;;;13.27;;
1460;SDS011;724;49.910;12.530;2023-11-18T04:03:00;14.35;;;13.65;;
1460;SDS011;724;49.910;12.530;2023-11-18T04:05:28;14.10;;;13.40;;
1460;SDS011;724;49.910;12.530;2023-11-18T04:07:56;13.98;;;13.27;;
1460;SDS011;724;49.910;12.530;2023-11-18T04:10:23;14.13;;;13.43;;
1460;SDS011;724;49.910;12.530;2023-11-18T04:12:50;13.90;;;13.20;;
1460;SDS011;724;49.910;12.530;2023-11-18T04:15:17;13.93;;;13.23;;
1460;SDS011;724;49.910;12.530;2023-11-18T04:17:43;14.43;;;13.73;;
1460;SDS011;724;49.910;12.530;2023-11-18T04:20:10;14.27;;;13.57;;
1460;SDS011;724;49.910;12.530;2023-11-18T04:22:38;14.30;;;13.60;;
1460;SDS011;724;49.910;12.530;2023-11-18T04:25:07;14.45;;;13.75;;
1460;SDS011;724;49.910;12.530;2023-11-18T04:27:35;14.40;;;13.70;;
1460;SDS011;724;49.910;12.530;2023-11-18T04:30:02;13.98;;;13.27;;
1460;SDS011;724;49.910;12.530;2023-11-18T04:32:29;13.93;;;13.23;;
1460;SDS011;724;49.910;12.530;2023-11-18T04:34:57;13.75;;;13.05;;
1460;SDS011;724;49.910;12.530;2023-11-18T04:37:24;13.70;;;13.00;;
1460;SDS011;724;49.910;12.530;2023-11-18T04:39:51;13.95;;;13.25;;
1460;SDS011;724;49.910;12.530;2023-11-18T04:42:20;13.52;;;12.82;;
1460;SDS011;724;49.910;12.530;2023-11-18T04:44:47;13.55;;;12.85;;
1460;SDS011;724;49.910;12.530;2023-11-18T04:47:14;13.90;;;13.20;;
1460;SDS011;724;49.910;12.530;2023-11-18T04:49:43;13.90;;;13.20;;
1460;SDS011;724;49.910;12.530;2023-11-18T04:52:10;13.27;;;12.57;;
1460;SDS011;724;49.910;12.530;2023-11-18T04:54:36;13.73;;;13.02;;
1460;SDS011;724;49.910;12.530;2023-11-18T04:57:03;13.40;;;12.70;;
1460;SDS011;724;49.910;12.530;2023-11-18T04:59:31;13.00;;;12.30;;
1460;SDS011;724;49.910;12.530;2023-11-18T05:01:58;13.63;;;12.93;;
1460;SDS011;724;49.910;12.530;2023-11-18T05:04:28;14.05;;;13.35;;
1460;SDS011;724;49.910;12.530;2023-11-18T05:06:54;13.90;;;13.20;;
1460;SDS011;724;49.910;12.530;2023-11-18T05:09:22;13.38;;;12.68;;
1460;SDS011;724;49.910;12.530;2023-11-18T05:11:49;13.40;;;12.70;;
1460;SDS011;724;49.910;12.530;2023-11-18T05:14:15;13.45;;;12.75;;
1460;SDS011;724;49.910;12.530;2023-11-18T05:16:44;13.45;;;12.75;;
1460;SDS011;724;49.910;12.530;2023-11-18T05:19:12;13.75;;;13.05;;
1460;SDS011;724;49.910;12.530;2023-11-18T05:21:39;13.00;;;12.30;;
1460;SDS011;724;49.910;12.530;2023-11-18T05:24:06;12.90;;;12.20;;
1460;SDS011;724;49.910;12.530;2023-11-18T05:26:35;12.70;;;12.00;;
1460;SDS011;724;49.910;12.530;2023-11-18T05:29:02;13.32;;;12.63;;
1460;SDS011;724;49.910;12.530;2023-11-18T05:31:28;13.35;;;12.65;;
1460;SDS011;724;49.910;12.530;2023-11-18T05:33:58;13.38;;;12.68;;
1460;SDS011;724;49.910;12.530;2023-11-18T05:36:25;13.55;;;12.85;;
1460;SDS011;724;49.910;12.530;2023-11-18T05:38:55;13.18;;;12.48;;
1460;SDS011;724;49.910;12.530;2023-11-18T05:41:22;13.45;;;12.75;;
1460;SDS011;724;49.910;12.530;2023-11-18T05:43:52;13.30;;;12.60;;
1460;SDS011;724;49.910;12.530;2023-11-18T05:46:22;13.30;;;12.60;;
1460;SDS011;724;49.910;12.530;2023-11-18T05:48:51;13.40;;;12.70;;
1460;SDS011;724;49.910;12.530;2023-11-18T05:51:20;13.05;;;12.35;;
1460;SDS011;724;49.910;12.530;2023-11-18T05:53:48;12.90;;;12.20;;
1460;SDS011;724;49.910;12.530;2023-11-18T05:56:16;13.43;;;12.73;;
1460;SDS011;724;49.910;12.530;2023-11-18T05:58:44;13.45;;;12.75;;
1460;SDS011;724;49.910;12.530;2023-11-18T06:01:12;13.20;;;12.50;;
1460;SDS011;724;49.910;12.530;2023-11-18T06:03:39;13.13;;;12.43;;
1460;SDS011;724;49.910;12.530;2023-11-18T06:06:07;13.00;;;12.30;;
1460;SDS011;724;49.910;12.530;2023-11-18T06:08:37;12.50;;;11.90;;
1460;SDS011;724;49.910;12.530;2023-11-18T06:11:06;13.05;;;12.35;;
1460;SDS011;724;49.910;12.530;2023-11-18T06:13:38;13.15;;;12.45;;
1460;SDS011;724;49.910;12.530;2023-11-18T06:16:09;12.45;;;11.85;;
1460;SDS011;724;49.910;12.530;2023-11-18T06:18:40;12.93;;;12.23;;
1460;SDS011;724;49.910;12.530;2023-11-18T06:21:10;13.00;;;12.30;;
1460;SDS011;724;49.910;12.530;2023-11-18T06:23:39;13.23;;;12.52;;
1460;SDS011;724;49.910;12.530;2023-11-18T06:26:06;12.45;;;11.85;;
1460;SDS011;724;49.910;12.530;2023-11-18T06:28:35;12.50;;;11.90;;
1460;SDS011;724;49.910;12.530;2023-11-18T06:31:02;13.07;;;12.38;;
1460;SDS011;724;49.910;12.530;2023-11-18T06:33:29;13.40;;;12.70;;
1460;SDS011;724;49.910;12.530;2023-11-18T06:35:58;13.80;;;13.10;;
1460;SDS011;724;49.910;12.530;2023-11-18T06:38:25;15.40;;;14.60;;
1460;SDS011;724;49.910;12.530;2023-11-18T06:40:56;14.90;;;14.10;;
1460;SDS011;724;49.910;12.530;2023-11-18T06:43:27;15.45;;;14.65;;
1460;SDS011;724;49.910;12.530;2023-11-18T06:46:07;15.30;;;14.50;;
1460;SDS011;724;49.910;12.530;2023-11-18T06:48:35;15.20;;;14.40;;
1460;SDS011;724;49.910;12.530;2023-11-18T06:51:02;15.35;;;14.55;;
1460;SDS011;724;49.910;12.530;2023-11-18T06:53:33;15.20;;;14.40;;
1460;SDS011;724;49.910;12.530;2023-11-18T06:56:01;15.27;;;14.48;;
1460;SDS011;724;49.910;12.530;2023-11-18T06:58:27;15.38;;;14.57;;
1460;SDS011;724;49.910;12.530;2023-11-18T07:00:54;15.00;;;14.20;;
1460;SDS011;724;49.910;12.530;2023-11-18T07:03:21;14.90;;;14.10;;
1460;SDS011;724;49.910;12.530;2023-11-18T07:05:48;15.40;;;14.60;;
1460;SDS011;724;49.910;12.530;2023-11-18T07:08:16;15.35;;;14.55;;
1460;SDS011;724;49.910;12.530;2023-11-18T07:10:45;15.75;;;14.95;;
1460;SDS011;724;49.910;12.530;2023-11-18T07:13:13;15.18;;;14.38;;
1460;SDS011;724;49.910;12.530;2023-11-18T07:15:39;15.00;;;14.20;;
1460;SDS011;724;49.910;12.530;2023-11-18T07:18:07;15.30;;;14.50;;
1460;SDS011;724;49.910;12.530;2023-11-18T07:20:34;14.90;;;14.10;;
1460;SDS011;724;49.910;12.530;2023-11-18T07:23:01;15.88;;;15.07;;
1460;SDS011;724;49.910;12.530;2023-11-18T07:25:27;15.20;;;14.40;;
1460;SDS011;724;49.910;12.530;2023-11-18T07:27:54;15.85;;;15.05;;
1460;SDS011;724;49.910;12.530;2023-11-18T07:30:23;15.95;;;15.15;;
1460;SDS011;724;49.910;12.530;2023-11-18T07:32:50;15.50;;;14.70;;
1460;SDS011;724;49.910;12.530;2023-11-18T07:35:17;15.90;;;15.10;;
1460;SDS011;724;49.910;12.530;2023-11-18T07:37:44;15.40;;;14.60;;
1460;SDS011;724;49.910;12.530;2023-11-18T07:40:11;15.63;;;14.82;;
1460;SDS011;724;49.910;12.530;2023-11-18T07:42:39;15.50;;;14.70;;
1460;SDS011;724;49.910;12.530;2023-11-18T07:45:07;15.50;;;14.70;;
1460;SDS011;724;49.910;12.530;2023-11-18T07:47:43;15.70;;;14.90;;
1460;SDS011;724;49.910;12.530;2023-11-18T07:50:10;15.63;;;14.82;;
1460;SDS011;724;49.910;12.530;2023-11-18T07:52:38;15.70;;;14.90;;
1460;SDS011;724;49.910;12.530;2023-11-18T07:55:06;15.40;;;14.60;;
1460;SDS011;724;49.910;12.530;2023-11-18T07:57:34;16.10;;;15.30;;
1460;SDS011;724;49.910;12.530;2023-11-18T08:00:02;15.50;;;14.70;;
1460;SDS011;724;49.910;12.530;2023-11-18T08:02:30;15.73;;;14.93;;
1460;SDS011;724;49.910;12.530;2023-11-18T08:04:58;15.10;;;14.30;;
1460;SDS011;724;49.910;12.530;2023-11-18T08:07:25;14.90;;;14.10;;
1460;SDS011;724;49.910;12.530;2023-11-18T08:09:52;15.10;;;14.30;;
1460;SDS011;724;49.910;12.530;2023-11-18T08:12:19;15.60;;;14.80;;
1460;SDS011;724;49.910;12.530;2023-11-18T08:14:46;16.25;;;15.45;;
1460;SDS011;724;49.910;12.530;2023-11-18T08:17:13;16.27;;;15.48;;
1460;SDS011;724;49.910;12.530;2023-11-18T08:19:39;15.70;;;14.90;;
1460;SDS011;724;49.910;12.530;2023-11-18T08:22:08;15.60;;;14.80;;
1460;SDS011;724;49.910;12.530;2023-11-18T08:24:34;15.50;;;14.70;;
1460;SDS011;724;49.910;12.530;2023-11-18T08:27:02;15.90;;;15.10;;
1460;SDS011;724;49.910;12.530;2023-11-18T08:29:29;15.98;;;15.18;;
1460;SDS011;724;49.910;12.530;2023-11-18T08:31:58;15.60;;;14.80;;
1460;SDS011;724;49.910;12.530;2023-11-18T08:34:25;15.60;;;14.80;;
1460;SDS011;724;49.910;12.530;2023-11-18T08:36:52;15.70;;;14.90;;
1460;SDS011;724;49.910;12.530;2023-11-18T08:39:20;15.65;;;14.85;;
1460;SDS011;724;49.910;12.530;2023-11-18T08:41:50;15.80;;;15.00;;
1460;SDS011;724;49.910;12.530;2023-11-18T08:44:17;15.40;;;14.60;;
1460;SDS011;724;49.910;12.530;2023-11-18T08:46:44;15.35;;;14.55;;
1460;SDS011;724;49.910;12.530;2023-11-18T08:49:11;15.30;;;14.50;;
1460;SDS011;724;49.910;12.530;2023-11-18T08:51:38;15.85;;;15.05;;
1460;SDS011;724;49.910;12.530;2023-11-18T08:54:07;17.20;;;16.30;;
1460;SDS011;724;49.910;12.530;2023-11-18T08:56:48;17.20;;;16.30;;
1460;SDS011;724;49.910;12.530;2023-11-18T08:59:17;16.58;;;15.77;;
1460;SDS011;724;49.910;12.530;2023-11-18T09:01:49;17.05;;;16.15;;
1460;SDS011;724;49.910;12.530;2023-11-18T09:04:23;17.20;;;16.30;;
1460;SDS011;724;49.910;12.530;2023-11-18T09:06:50;16.30;;;15.50;;
1460;SDS011;724;49.910;12.530;2023-11-18T09:09:19;15.80;;;15.00;;
1460;SDS011;724;49.910;12.530;2023-11-18T09:11:52;15.60;;;14.80;;
1460;SDS011;724;49.910;12.530;2023-11-18T09:14:21;15.80;;;15.00;;
1460;SDS011;724;49.910;12.530;2023-11-18T09:16:49;15.90;;;15.10;;
1460;SDS011;724;49.910;12.530;2023-11-18T09:19:16;15.45;;;14.65;;
1460;SDS011;724;49.910;12.530;2023-11-18T09:21:45;15.43;;;14.63;;
1460;SDS011;724;49.910;12.530;2023-11-18T09:24:11;15.10;;;14.30;;
1460;SDS011;724;49.910;12.530;2023-11-18T09:26:38;15.00;;;14.20;;
1460;SDS011;724;49.910;12.530;2023-11-18T09:29:06;15.10;;;14.30;;
1460;SDS011;724;49.910;12.530;2023-11-18T09:31:34;15.13;;;14.32;;
1460;SDS011;724;49.910;12.530;2023-11-18T09:34:02;14.80;;;14.00;;
1460;SDS011;724;49.910;12.530;2023-11-18T09:36:31;15.02;;;14.23;;
1460;SDS011;724;49.910;12.530;2023-11-18T09:38:59;15.05;;;14.25;;
1460;SDS011;724;49.910;12.530;2023-11-18T09:41:28;14.93;;;14.13;;
1460;SDS011;724;49.910;12.530;2023-11-18T09:43:55;15.30;;;14.50;;
1460;SDS011;724;49.910;12.530;2023-11-18T09:46:29;14.75;;;13.98;;
1460;SDS011;724;49.910;12.530;2023-11-18T09:49:01;15.25;;;14.45;;
1460;SDS011;724;49.910;12.530;2023-11-18T09:51:41;14.70;;;13.95;;
1460;SDS011;724;49.910;12.530;2023-11-18T09:54:12;14.60;;;13.90;;
1460;SDS011;724;49.910;12.530;2023-11-18T09:56:49;14.85;;;14.05;;
1460;SDS011;724;49.910;12.530;2023-11-18T09:59:25;14.82;;;14.02;;
1460;SDS011;724;49.910;12.530;2023-11-18T10:02:01;14.70;;;13.95;;
1460;SDS011;724;49.910;12.530;2023-11-18T10:04:29;14.50;;;13.80;;
1460;SDS011;724;49.910;12.530;2023-11-18T10:06:57;14.25;;;13.55;;
1460;SDS011;724;49.910;12.530;2023-11-18T10:09:24;14.60;;;13.90;;
1460;SDS011;724;49.910;12.530;2023-11-18T10:11:55;14.50;;;13.80;;
1460;SDS011;724;49.910;12.530;2023-11-18T10:14:25;14.50;;;13.80;;
1460;SDS011;724;49.910;12.530;2023-11-18T10:16:52;14.80;;;14.00;;
1460;SDS011;724;49.910;12.530;2023-11-18T10:19:20;14.00;;;13.30;;
1460;SDS011;724;49.910;12.530;2023-11-18T10:21:51;14.80;;;14.00;;
1460;SDS011;724;49.910;12.530;2023-11-18T10:24:17;14.20;;;13.50;;
1460;SDS011;724;49.910;12.530;2023-11-18T10:26:45;14.55;;;13.85;;
1460;SDS011;724;49.910;12.530;2023-11-18T10:29:20;14.20;;;13.50;;
1460;SDS011;724;49.910;12.530;2023-11-18T10:31:48;14.20;;;13.50;;
1460;SDS011;724;49.910;12.530;2023-11-18T10:34:18;13.90;;;13.20;;
1460;SDS011;724;49.910;12.530;2023-11-18T10:36:58;14.05;;;13.35;;
1460;SDS011;724;49.910;12.530;2023-11-18T10:39:27;14.00;;;13.30;;
1460;SDS011;724;49.910;12.530;2023-11-18T10:41:58;14.40;;;13.70;;
1460;SDS011;724;49.910;12.530;2023-11-18T10:44:25;14.10;;;13.40;;
1460;SDS011;724;49.910;12.530;2023-11-18T10:46:52;13.90;;;13.20;;
1460;SDS011;724;49.910;12.530;2023-11-18T10:49:21;13.77;;;13.07;;
1460;SDS011;724;49.910;12.530;2023-11-18T10:51:50;13.90;;;13.20;;
1460;SDS011;724;49.910;12.530;2023-11-18T10:54:17;13.70;;;13.00;;
1460;SDS011;724;49.910;12.530;2023-11-18T10:56:47;14.30;;;13.60;;
1460;SDS011;724;49.910;12.530;2023-11-18T10:59:14;14.10;;;13.40;;
1460;SDS011;724;49.910;12.530;2023-11-18T11:01:43;14.90;;;14.10;;
1460;SDS011;724;49.910;12.530;2023-11-18T11:04:14;14.60;;;13.90;;
1460;SDS011;724;49.910;12.530;2023-11-18T11:06:44;15.10;;;14.30;;
1460;SDS011;724;49.910;12.530;2023-11-18T11:09:17;15.10;;;14.30;;
1460;SDS011;724;49.910;12.530;2023-11-18T11:11:46;15.13;;;14.32;;
1460;SDS011;724;49.910;12.530;2023-11-18T11:14:16;15.30;;;14.50;;
1460;SDS011;724;49.910;12.530;2023-11-18T11:16:47;14.85;;;14.05;;
1460;SDS011;724;49.910;12.530;2023-11-18T11:19:20;15.30;;;14.50;;
1460;SDS011;724;49.910;12.530;2023-11-18T11:21:56;15.20;;;14.40;;
1460;SDS011;724;49.910;12.530;2023-11-18T11:24:35;15.40;;;14.60;;
1460;SDS011;724;49.910;12.530;2023-11-18T11:27:23;15.50;;;14.70;;
1460;SDS011;724;49.910;12.530;2023-11-18T11:30:06;15.30;;;14.50;;
1460;SDS011;724;49.910;12.530;2023-11-18T11:32:45;15.40;;;14.60;;
1460;SDS011;724;49.910;12.530;2023-11-18T11:35:19;15.50;;;14.70;;
1460;SDS011;724;49.910;12.530;2023-11-18T11:37:51;15.50;;;14.70;;
1460;SDS011;724;49.910;12.530;2023-11-18T11:40:27;15.43;;;14.63;;
1460;SDS011;724;49.910;12.530;2023-11-18T11:42:55;15.10;;;14.30;;
1460;SDS011;724;49.910;12.530;2023-11-18T11:45:26;15.07;;;14.27;;
1460;SDS011;724;49.910;12.530;2023-11-18T11:47:54;15.00;;;14.20;;
1460;SDS011;724;49.910;12.530;2023-11-18T11:50:39;15.40;;;14.60;;
1460;SDS011;724;49.910;12.530;2023-11-18T11:53:25;15.45;;;14.65;;
1460;SDS011;724;49.910;12.530;2023-11-18T11:55:56;15.70;;;14.90;;
1460;SDS011;724;49.910;12.530;2023-11-18T11:58:32;15.50;;;14.70;;
1460;SDS011;724;49.910;12.530;2023-11-18T12:01:02;15.30;;;14.50;;
1460;SDS011;724;49.910;12.530;2023-11-18T12:03:43;15.27;;;14.48;;
1460;SDS011;724;49.910;12.530;2023-11-18T12:06:13;15.38;;;14.57;;
1460;SDS011;724;49.910;12.530;2023-11-18T12:08:42;15.10;;;14.30;;
1460;SDS011;724;49.910;12.530;2023-11-18T12:11:09;15.40;;;14.60;;
1460;SDS011;724;49.910;12.530;2023-11-18T12:13:40;15.40;;;14.60;;
1460;SDS011;724;49.910;12.530;2023-11-18T12:19:32;15.15;;;14.35;;
1460;SDS011;724;49.910;12.530;2023-11-18T12:22:09;15.10;;;14.30;;
1460;SDS011;724;49.910;12.530;2023-11-18T12:24:44;15.00;;;14.20;;
1460;SDS011;724;49.910;12.530;2023-11-18T12:27:12;15.00;;;14.20;;
1460;SDS011;724;49.910;12.530;2023-11-18T12:29:41;14.80;;;14.00;;
1460;SDS011;724;49.910;12.530;2023-11-18T12:32:09;15.02;;;14.23;;
1460;SDS011;724;49.910;12.530;2023-11-18T12:34:49;14.20;;;13.50;;
1460;SDS011;724;49.910;12.530;2023-11-18T12:37:23;14.40;;;13.70;;
1460;SDS011;724;49.910;12.530;2023-11-18T12:40:23;14.50;;;13.80;;
1460;SDS011;724;49.910;12.530;2023-11-18T12:43:00;14.50;;;13.80;;
1460;SDS011;724;49.910;12.530;2023-11-18T12:48:39;14.90;;;14.10;;
1460;SDS011;724;49.910;12.530;2023-11-18T12:51:11;14.80;;;14.00;;
1460;SDS011;724;49.910;12.530;2023-11-18T12:53:45;14.93;;;14.13;;
1460;SDS011;724;49.910;12.530;2023-11-18T12:56:16;14.90;;;14.10;;
1460;SDS011;724;49.910;12.530;2023-11-18T12:58:45;14.80;;;14.00;;
1460;SDS011;724;49.910;12.530;2023-11-18T13:01:12;14.60;;;13.90;;
1460;SDS011;724;49.910;12.530;2023-11-18T13:03:39;14.50;;;13.80;;
1460;SDS011;724;49.910;12.530;2023-11-18T13:06:07;14.50;;;13.80;;
1460;SDS011;724;49.910;12.530;2023-11-18T13:08:34;14.50;;;13.80;;
1460;SDS011;724;49.910;12.530;2023-11-18T13:11:01;14.38;;;13.68;;
1460;SDS011;724;49.910;12.530;2023-11-18T13:13:31;14.23;;;13.52;;
1460;SDS011;724;49.910;12.530;2023-11-18T13:16:00;14.75;;;13.98;;
1460;SDS011;724;49.910;12.530;2023-11-18T13:18:27;14.38;;;13.68;;
1460;SDS011;724;49.910;12.530;2023-11-18T13:21:07;14.52;;;13.82;;
1460;SDS011;724;49.910;12.530;2023-11-18T13:23:36;13.93;;;13.23;;
1460;SDS011;724;49.910;12.530;2023-11-18T13:26:03;13.93;;;13.23;;
1460;SDS011;724;49.910;12.530;2023-11-18T13:28:32;14.10;;;13.40;;
1460;SDS011;724;49.910;12.530;2023-11-18T13:30:59;13.65;;;12.95;;
1460;SDS011;724;49.910;12.530;2023-11-18T13:33:26;14.25;;;13.55;;
1460;SDS011;724;49.910;12.530;2023-11-18T13:35:53;14.10;;;13.40;;
1460;SDS011;724;49.910;12.530;2023-11-18T13:38:20;14.20;;;13.50;;
1460;SDS011;724;49.910;12.530;2023-11-18T13:40:47;14.50;;;13.80;;
1460;SDS011;724;49.910;12.530;2023-11-18T13:43:14;14.50;;;13.80;;
1460;SDS011;724;49.910;12.530;2023-11-18T13:45:42;14.80;;;14.00;;
1460;SDS011;724;49.910;12.530;2023-11-18T13:48:11;14.70;;;13.95;;
1460;SDS011;724;49.910;12.530;2023-11-18T13:50:40;14.50;;;13.80;;
1460;SDS011;724;49.910;12.530;2023-11-18T13:53:07;13.98;;;13.27;;
1460;SDS011;724;49.910;12.530;2023-11-18T13:55:35;14.30;;;13.60;;
1460;SDS011;724;49.910;12.530;2023-11-18T13:58:04;14.50;;;13.80;;
1460;SDS011;724;49.910;12.530;2023-11-18T14:00:31;14.38;;;13.68;;
1460;SDS011;724;49.910;12.530;2023-11-18T14:03:00;14.82;;;14.02;;
1460;SDS011;724;49.910;12.530;2023-11-18T14:05:29;14.10;;;13.40;;
1460;SDS011;724;49.910;12.530;2023-11-18T14:08:00;14.20;;;13.50;;
1460;SDS011;724;49.910;12.530;2023-11-18T14:10:34;14.50;;;13.80;;
1460;SDS011;724;49.910;12.530;2023-11-18T14:13:03;14.35;;;13.65;;
1460;SDS011;724;49.910;12.530;2023-11-18T14:15:34;14.32;;;13.63;;
1460;SDS011;724;49.910;12.530;2023-11-18T14:18:02;14.40;;;13.70;;
1460;SDS011;724;49.910;12.530;2023-11-18T14:20:32;14.20;;;13.50;;
1460;SDS011;724;49.910;12.530;2023-11-18T14:23:00;14.00;;;13.30;;
1460;SDS011;724;49.910;12.530;2023-11-18T14:25:28;13.60;;;12.90;;
1460;SDS011;724;49.910;12.530;2023-11-18T14:27:55;14.20;;;13.50;;
1460;SDS011;724;49.910;12.530;2023-11-18T14:30:22;14.20;;;13.50;;
1460;SDS011;724;49.910;12.530;2023-11-18T14:32:50;13.60;;;12.90;;
1460;SDS011;724;49.910;12.530;2023-11-18T14:35:19;14.00;;;13.30;;
1460;SDS011;724;49.910;12.530;2023-11-18T14:37:46;13.93;;;13.23;;
1460;SDS011;724;49.910;12.530;2023-11-18T14:40:13;13.95;;;13.25;;
1460;SDS011;724;49.910;12.530;2023-11-18T14:42:41;14.05;;;13.35;;
1460;SDS011;724;49.910;12.530;2023-11-18T14:45:08;13.93;;;13.23;;
1460;SDS011;724;49.910;12.530;2023-11-18T14:47:37;13.50;;;12.80;;
1460;SDS011;724;49.910;12.530;2023-11-18T14:50:04;13.90;;;13.20;;
1460;SDS011;724;49.910;12.530;2023-11-18T14:52:41;13.70;;;13.00;;
1460;SDS011;724;49.910;12.530;2023-11-18T14:55:08;13.90;;;13.20;;
1460;SDS011;724;49.910;12.530;2023-11-18T14:57:37;14.20;;;13.50;;
1460;SDS011;724;49.910;12.530;2023-11-18T15:00:04;13.98;;;13.27;;
1460;SDS011;724;49.910;12.530;2023-11-18T15:02:45;13.90;;;13.20;;
1460;SDS011;724;49.910;12.530;2023-11-18T15:05:13;13.70;;;13.00;;